sensor_id;sensor_type;location;lat;lon;timestamp;P1;durP1;ratioP1;P2;durP2;ratioP2
22068;SDS011;13887;57.196;-2.100;2023-10-09T00:02:11;14.53;;;14.03;;
22068;SDS011;13887;57.196;-2.100;2023-10-09T00:04:41;14.17;;;13.67;;
22068;SDS011;13887;57.196;-2.100;2023-10-09T00:07:11;14.30;;;13.80;;
22068;SDS011;13887;57.196;-2.100;2023-10-09T00:09:40;13.90;;;13.40;;
22068;SDS011;13887;57.196;-2.100;2023-10-09T00:12:18;14.50;;;14.00;;
22068;SDS011;13887;57.196;-2.100;2023-10-09T00:14:53;14.17;;;13.67;;
22068;SDS011;13887;57.196;-2.100;2023-10-09T00:17:23;14.00;;;13.50;;
22068;SDS011;13887;57.196;-2.100;2023-10-09T00:19:51;14.37;;;13.87;;
22068;SDS011;13887;57.196;-2.100;2023-10-09T00:22:19;14.23;;;13.73;;
22068;SDS011;13887;57.196;-2.100;2023-10-09T00:24:57;13.90;;;13.40;;
22068;SDS011;13887;57.196;-2.100;2023-10-09T00:27:41;14.30;;;13.80;;
22068;SDS011;13887;57.196;-2.100;2023-10-09T00:30:14;13.73;;;13.23;;
22068;SDS011;13887;57.196;-2.100;2023-10-09T00:32:45;13.60;;;13.13;;
22068;SDS011;13887;57.196;-2.100;2023-10-09T00:35:19;14.00;;;13.50;;
22068;SDS011;13887;57.196;-2.100;2023-10-09T00:38:07;13.67;;;13.17;;
22068;SDS011;13887;57.196;-2.100;2023-10-09T00:40:55;13.47;;;13.03;;
22068;SDS011;13887;57.196;-2.100;2023-10-09T00:43:31;13.70;;;13.20;;
22068;SDS011;13887;57.196;-2.100;2023-10-09T00:45:59;13.53;;;13.03;;
22068;SDS011;13887;57.196;-2.100;2023-10-09T00:48:55;13.87;;;13.37;;
22068;SDS011;13887;57.196;-2.100;2023-10-09T00:51:29;13.63;;;13.13;;
22068;SDS011;13887;57.196;-2.100;2023-10-09T00:54:04;13.77;;;13.27;;
22068;SDS011;13887;57.196;-2.100;2023-10-09T00:56:54;13.90;;;13.40;;
22068;SDS011;13887;57.196;-2.100;2023-10-09T00:59:25;13.47;;;13.07;;
22068;SDS011;13887;57.196;-2.100;2023-10-09T01:01:53;13.93;;;13.43;;
22068;SDS011;13887;57.196;-2.100;2023-10-09T01:04:24;13.90;;;13.40;;
22068;SDS011;13887;57.196;-2.100;2023-10-09T01:06:56;13.93;;;13.43;;
22068;SDS011;13887;57.196;-2.100;2023-10-09T01:09:35;13.77;;;13.27;;
22068;SDS011;13887;57.196;-2.100;2023-10-09T01:12:05;13.90;;;13.40;;
22068;SDS011;13887;57.196;-2.100;2023-10-09T01:14:32;14.13;;;13.63;;
22068;SDS011;13887;57.196;-2.100;2023-10-09T01:17:06;14.17;;;13.67;;
22068;SDS011;13887;57.196;-2.100;2023-10-09T01:19:36;13.83;;;13.33;;
22068;SDS011;13887;57.196;-2.100;2023-10-09T01:22:03;14.00;;;13.50;;
22068;SDS011;13887;57.196;-2.100;2023-10-09T01:24:41;14.03;;;13.53;;
22068;SDS011;13887;57.196;-2.100;2023-10-09T01:27:09;13.47;;;13.07;;
22068;SDS011;13887;57.196;-2.100;2023-10-09T01:29:43;14.17;;;13.67;;
22068;SDS011;13887;57.196;-2.100;2023-10-09T01:32:13;14.20;;;13.70;;
22068;SDS011;13887;57.196;-2.100;2023-10-09T01:34:45;13.67;;;13.17;;
22068;SDS011;13887;57.196;-2.100;2023-10-09T01:37:16;13.67;;;13.20;;
22068;SDS011;13887;57.196;-2.100;2023-10-09T01:39:47;14.20;;;13.70;;
22068;SDS011;13887;57.196;-2.100;2023-10-09T01:42:46;14.00;;;13.50;;
22068;SDS011;13887;57.196;-2.100;2023-10-09T01:45:13;13.90;;;13.40;;
22068;SDS011;13887;57.196;-2.100;2023-10-09T01:47:47;13.90;;;13.40;;
22068;SDS011;13887;57.196;-2.100;2023-10-09T01:50:21;13.97;;;13.47;;
22068;SDS011;13887;57.196;-2.100;2023-10-09T01:52:58;13.83;;;13.33;;
22068;SDS011;13887;57.196;-2.100;2023-10-09T01:55:30;13.57;;;13.17;;
22068;SDS011;13887;57.196;-2.100;2023-10-09T01:58:07;14.10;;;13.60;;
22068;SDS011;13887;57.196;-2.100;2023-10-09T02:00:50;16.33;;;15.43;;
22068;SDS011;13887;57.196;-2.100;2023-10-09T02:03:24;13.80;;;13.30;;
22068;SDS011;13887;57.196;-2.100;2023-10-09T02:05:53;14.10;;;13.60;;
22068;SDS011;13887;57.196;-2.100;2023-10-09T02:08:44;13.93;;;13.43;;
22068;SDS011;13887;57.196;-2.100;2023-10-09T02:11:16;14.10;;;13.60;;
22068;SDS011;13887;57.196;-2.100;2023-10-09T02:13:51;13.93;;;13.43;;
22068;SDS011;13887;57.196;-2.100;2023-10-09T02:16:28;13.27;;;12.87;;
22068;SDS011;13887;57.196;-2.100;2023-10-09T02:18:55;13.53;;;13.10;;
22068;SDS011;13887;57.196;-2.100;2023-10-09T02:21:23;13.67;;;13.17;;
22068;SDS011;13887;57.196;-2.100;2023-10-09T02:24:06;13.03;;;12.63;;
22068;SDS011;13887;57.196;-2.100;2023-10-09T02:26:40;13.07;;;12.67;;
22068;SDS011;13887;57.196;-2.100;2023-10-09T02:29:19;13.70;;;13.20;;
22068;SDS011;13887;57.196;-2.100;2023-10-09T02:31:50;13.07;;;12.67;;
22068;SDS011;13887;57.196;-2.100;2023-10-09T02:34:40;13.90;;;13.40;;
22068;SDS011;13887;57.196;-2.100;2023-10-09T02:37:08;13.40;;;13.00;;
22068;SDS011;13887;57.196;-2.100;2023-10-09T02:39:40;13.50;;;13.07;;
22068;SDS011;13887;57.196;-2.100;2023-10-09T02:42:13;13.30;;;12.90;;
22068;SDS011;13887;57.196;-2.100;2023-10-09T02:44:41;13.93;;;13.43;;
22068;SDS011;13887;57.196;-2.100;2023-10-09T02:47:20;13.27;;;12.87;;
22068;SDS011;13887;57.196;-2.100;2023-10-09T02:49:51;13.73;;;13.23;;
22068;SDS011;13887;57.196;-2.100;2023-10-09T02:52:19;13.93;;;13.43;;
22068;SDS011;13887;57.196;-2.100;2023-10-09T02:54:51;13.90;;;13.40;;
22068;SDS011;13887;57.196;-2.100;2023-10-09T02:57:40;13.83;;;13.33;;
22068;SDS011;13887;57.196;-2.100;2023-10-09T03:00:09;13.93;;;13.43;;
22068;SDS011;13887;57.196;-2.100;2023-10-09T03:02:46;13.70;;;13.20;;
22068;SDS011;13887;57.196;-2.100;2023-10-09T03:05:17;13.67;;;13.17;;
22068;SDS011;13887;57.196;-2.100;2023-10-09T03:07:45;13.53;;;13.07;;
22068;SDS011;13887;57.196;-2.100;2023-10-09T03:10:12;13.90;;;13.40;;
22068;SDS011;13887;57.196;-2.100;2023-10-09T03:12:39;13.73;;;13.23;;
22068;SDS011;13887;57.196;-2.100;2023-10-09T03:15:10;13.43;;;13.00;;
22068;SDS011;13887;57.196;-2.100;2023-10-09T03:17:38;13.30;;;12.90;;
22068;SDS011;13887;57.196;-2.100;2023-10-09T03:20:05;13.77;;;13.27;;
22068;SDS011;13887;57.196;-2.100;2023-10-09T03:22:41;14.03;;;13.53;;
22068;SDS011;13887;57.196;-2.100;2023-10-09T03:25:09;14.00;;;13.50;;
22068;SDS011;13887;57.196;-2.100;2023-10-09T03:27:43;13.70;;;13.20;;
22068;SDS011;13887;57.196;-2.100;2023-10-09T03:30:14;14.17;;;13.67;;
22068;SDS011;13887;57.196;-2.100;2023-10-09T03:32:53;14.10;;;13.60;;
22068;SDS011;13887;57.196;-2.100;2023-10-09T03:35:21;13.87;;;13.37;;
22068;SDS011;13887;57.196;-2.100;2023-10-09T03:37:54;14.13;;;13.63;;
22068;SDS011;13887;57.196;-2.100;2023-10-09T03:40:41;13.77;;;13.27;;
22068;SDS011;13887;57.196;-2.100;2023-10-09T03:43:09;13.93;;;13.43;;
22068;SDS011;13887;57.196;-2.100;2023-10-09T03:45:37;13.80;;;13.30;;
22068;SDS011;13887;57.196;-2.100;2023-10-09T03:48:19;13.90;;;13.40;;
22068;SDS011;13887;57.196;-2.100;2023-10-09T03:50:53;13.53;;;13.07;;
22068;SDS011;13887;57.196;-2.100;2023-10-09T03:53:35;13.67;;;13.17;;
22068;SDS011;13887;57.196;-2.100;2023-10-09T03:56:03;14.03;;;13.53;;
22068;SDS011;13887;57.196;-2.100;2023-10-09T03:58:44;13.50;;;13.07;;
22068;SDS011;13887;57.196;-2.100;2023-10-09T04:01:13;14.07;;;13.57;;
22068;SDS011;13887;57.196;-2.100;2023-10-09T04:03:57;13.90;;;13.40;;
22068;SDS011;13887;57.196;-2.100;2023-10-09T04:06:29;13.77;;;13.27;;
22068;SDS011;13887;57.196;-2.100;2023-10-09T04:11:27;14.20;;;13.70;;
22068;SDS011;13887;57.196;-2.100;2023-10-09T04:13:54;13.67;;;13.17;;
22068;SDS011;13887;57.196;-2.100;2023-10-09T04:16:26;13.37;;;12.97;;
22068;SDS011;13887;57.196;-2.100;2023-10-09T04:19:00;13.17;;;12.77;;
22068;SDS011;13887;57.196;-2.100;2023-10-09T04:21:33;13.90;;;13.40;;
22068;SDS011;13887;57.196;-2.100;2023-10-09T04:24:04;13.53;;;13.07;;
22068;SDS011;13887;57.196;-2.100;2023-10-09T04:26:40;13.63;;;13.13;;
22068;SDS011;13887;57.196;-2.100;2023-10-09T04:29:11;13.27;;;12.87;;
22068;SDS011;13887;57.196;-2.100;2023-10-09T04:31:53;12.70;;;12.30;;
22068;SDS011;13887;57.196;-2.100;2023-10-09T04:34:25;13.03;;;12.63;;
22068;SDS011;13887;57.196;-2.100;2023-10-09T04:36:56;13.30;;;12.90;;
22068;SDS011;13887;57.196;-2.100;2023-10-09T04:39:27;12.80;;;12.40;;
22068;SDS011;13887;57.196;-2.100;2023-10-09T04:41:58;13.70;;;13.20;;
22068;SDS011;13887;57.196;-2.100;2023-10-09T04:44:45;13.20;;;12.80;;
22068;SDS011;13887;57.196;-2.100;2023-10-09T04:47:33;13.63;;;13.13;;
22068;SDS011;13887;57.196;-2.100;2023-10-09T04:50:25;13.40;;;13.00;;
22068;SDS011;13887;57.196;-2.100;2023-10-09T04:52:58;13.47;;;13.07;;
22068;SDS011;13887;57.196;-2.100;2023-10-09T04:55:46;13.80;;;13.30;;
22068;SDS011;13887;57.196;-2.100;2023-10-09T04:58:24;14.03;;;13.53;;
22068;SDS011;13887;57.196;-2.100;2023-10-09T05:00:52;14.03;;;13.53;;
22068;SDS011;13887;57.196;-2.100;2023-10-09T05:03:26;14.30;;;13.80;;
22068;SDS011;13887;57.196;-2.100;2023-10-09T05:05:53;13.70;;;13.20;;
22068;SDS011;13887;57.196;-2.100;2023-10-09T05:08:32;14.50;;;14.00;;
22068;SDS011;13887;57.196;-2.100;2023-10-09T05:11:03;14.00;;;13.50;;
22068;SDS011;13887;57.196;-2.100;2023-10-09T05:13:34;14.40;;;13.90;;
22068;SDS011;13887;57.196;-2.100;2023-10-09T05:16:17;13.87;;;13.37;;
22068;SDS011;13887;57.196;-2.100;2023-10-09T05:18:46;14.13;;;13.63;;
22068;SDS011;13887;57.196;-2.100;2023-10-09T05:21:25;14.17;;;13.67;;
22068;SDS011;13887;57.196;-2.100;2023-10-09T05:23:58;14.13;;;13.63;;
22068;SDS011;13887;57.196;-2.100;2023-10-09T05:26:40;14.07;;;13.57;;
22068;SDS011;13887;57.196;-2.100;2023-10-09T05:31:47;14.40;;;13.90;;
22068;SDS011;13887;57.196;-2.100;2023-10-09T05:34:24;14.67;;;14.17;;
22068;SDS011;13887;57.196;-2.100;2023-10-09T05:37:04;14.67;;;14.17;;
22068;SDS011;13887;57.196;-2.100;2023-10-09T05:39:52;15.10;;;14.60;;
22068;SDS011;13887;57.196;-2.100;2023-10-09T05:42:32;14.77;;;14.27;;
22068;SDS011;13887;57.196;-2.100;2023-10-09T05:45:04;14.67;;;14.17;;
22068;SDS011;13887;57.196;-2.100;2023-10-09T05:47:50;14.53;;;14.03;;
22068;SDS011;13887;57.196;-2.100;2023-10-09T05:52:51;14.83;;;14.33;;
22068;SDS011;13887;57.196;-2.100;2023-10-09T05:55:23;14.43;;;13.93;;
22068;SDS011;13887;57.196;-2.100;2023-10-09T06:00:22;14.43;;;13.93;;
22068;SDS011;13887;57.196;-2.100;2023-10-09T06:03:08;14.70;;;14.20;;
22068;SDS011;13887;57.196;-2.100;2023-10-09T06:05:51;14.60;;;14.10;;
22068;SDS011;13887;57.196;-2.100;2023-10-09T06:08:20;14.43;;;13.93;;
22068;SDS011;13887;57.196;-2.100;2023-10-09T06:10:53;14.93;;;14.43;;
22068;SDS011;13887;57.196;-2.100;2023-10-09T06:13:53;14.93;;;14.43;;
22068;SDS011;13887;57.196;-2.100;2023-10-09T06:16:36;14.77;;;14.27;;
22068;SDS011;13887;57.196;-2.100;2023-10-09T06:19:13;15.20;;;14.70;;
22068;SDS011;13887;57.196;-2.100;2023-10-09T06:21:46;14.57;;;14.07;;
22068;SDS011;13887;57.196;-2.100;2023-10-09T06:24:20;14.93;;;14.43;;
22068;SDS011;13887;57.196;-2.100;2023-10-09T06:26:49;14.27;;;13.77;;
22068;SDS011;13887;57.196;-2.100;2023-10-09T06:29:26;14.73;;;14.23;;
22068;SDS011;13887;57.196;-2.100;2023-10-09T06:34:57;15.00;;;14.50;;
22068;SDS011;13887;57.196;-2.100;2023-10-09T06:37:44;14.53;;;14.03;;
22068;SDS011;13887;57.196;-2.100;2023-10-09T06:43:14;14.83;;;14.33;;
22068;SDS011;13887;57.196;-2.100;2023-10-09T06:45:44;14.70;;;14.20;;
22068;SDS011;13887;57.196;-2.100;2023-10-09T06:48:12;14.20;;;13.70;;
22068;SDS011;13887;57.196;-2.100;2023-10-09T06:51:02;14.47;;;13.97;;
22068;SDS011;13887;57.196;-2.100;2023-10-09T06:53:48;14.00;;;13.50;;
22068;SDS011;13887;57.196;-2.100;2023-10-09T06:56:22;14.27;;;13.77;;
22068;SDS011;13887;57.196;-2.100;2023-10-09T06:59:10;13.97;;;13.47;;
22068;SDS011;13887;57.196;-2.100;2023-10-09T07:01:43;13.90;;;13.40;;
22068;SDS011;13887;57.196;-2.100;2023-10-09T07:04:12;14.00;;;13.50;;
22068;SDS011;13887;57.196;-2.100;2023-10-09T07:07:07;13.80;;;13.30;;
22068;SDS011;13887;57.196;-2.100;2023-10-09T07:09:36;14.13;;;13.63;;
22068;SDS011;13887;57.196;-2.100;2023-10-09T07:12:10;14.03;;;13.53;;
22068;SDS011;13887;57.196;-2.100;2023-10-09T07:14:47;14.23;;;13.73;;
22068;SDS011;13887;57.196;-2.100;2023-10-09T07:17:17;13.43;;;13.00;;
22068;SDS011;13887;57.196;-2.100;2023-10-09T07:20:00;13.33;;;12.93;;
22068;SDS011;13887;57.196;-2.100;2023-10-09T07:22:40;13.77;;;13.27;;
22068;SDS011;13887;57.196;-2.100;2023-10-09T07:25:20;13.67;;;13.17;;
22068;SDS011;13887;57.196;-2.100;2023-10-09T07:28:10;13.80;;;13.30;;
22068;SDS011;13887;57.196;-2.100;2023-10-09T07:31:03;13.80;;;13.30;;
22068;SDS011;13887;57.196;-2.100;2023-10-09T07:33:31;13.67;;;13.17;;
22068;SDS011;13887;57.196;-2.100;2023-10-09T07:36:17;14.23;;;13.73;;
22068;SDS011;13887;57.196;-2.100;2023-10-09T07:38:56;13.53;;;13.03;;
22068;SDS011;13887;57.196;-2.100;2023-10-09T07:41:23;13.73;;;13.23;;
22068;SDS011;13887;57.196;-2.100;2023-10-09T07:44:11;14.03;;;13.53;;
22068;SDS011;13887;57.196;-2.100;2023-10-09T07:47:01;13.70;;;13.20;;
22068;SDS011;13887;57.196;-2.100;2023-10-09T07:49:45;13.20;;;12.80;;
22068;SDS011;13887;57.196;-2.100;2023-10-09T07:52:21;13.73;;;13.23;;
22068;SDS011;13887;57.196;-2.100;2023-10-09T07:54:48;13.70;;;13.20;;
22068;SDS011;13887;57.196;-2.100;2023-10-09T07:57:29;14.00;;;13.50;;
22068;SDS011;13887;57.196;-2.100;2023-10-09T08:00:06;14.13;;;13.63;;
22068;SDS011;13887;57.196;-2.100;2023-10-09T08:02:59;14.17;;;13.67;;
22068;SDS011;13887;57.196;-2.100;2023-10-09T08:05:27;13.47;;;13.07;;
22068;SDS011;13887;57.196;-2.100;2023-10-09T08:08:01;14.20;;;13.70;;
22068;SDS011;13887;57.196;-2.100;2023-10-09T08:11:03;14.03;;;13.53;;
22068;SDS011;13887;57.196;-2.100;2023-10-09T08:13:49;14.40;;;13.90;;
22068;SDS011;13887;57.196;-2.100;2023-10-09T08:16:16;14.33;;;13.83;;
22068;SDS011;13887;57.196;-2.100;2023-10-09T08:18:53;14.20;;;13.70;;
22068;SDS011;13887;57.196;-2.100;2023-10-09T08:21:23;14.80;;;14.30;;
22068;SDS011;13887;57.196;-2.100;2023-10-09T08:24:09;13.97;;;13.47;;
22068;SDS011;13887;57.196;-2.100;2023-10-09T08:26:56;14.23;;;13.73;;
22068;SDS011;13887;57.196;-2.100;2023-10-09T08:29:43;13.93;;;13.43;;
22068;SDS011;13887;57.196;-2.100;2023-10-09T08:32:13;14.20;;;13.70;;
22068;SDS011;13887;57.196;-2.100;2023-10-09T08:35:08;13.90;;;13.40;;
22068;SDS011;13887;57.196;-2.100;2023-10-09T08:37:55;13.30;;;12.90;;
22068;SDS011;13887;57.196;-2.100;2023-10-09T08:40:33;14.40;;;13.90;;
22068;SDS011;13887;57.196;-2.100;2023-10-09T08:45:39;14.20;;;13.70;;
22068;SDS011;13887;57.196;-2.100;2023-10-09T08:48:07;14.23;;;13.73;;
22068;SDS011;13887;57.196;-2.100;2023-10-09T08:50:39;14.53;;;14.03;;
22068;SDS011;13887;57.196;-2.100;2023-10-09T08:53:07;14.17;;;13.67;;
22068;SDS011;13887;57.196;-2.100;2023-10-09T08:55:37;14.60;;;14.10;;
22068;SDS011;13887;57.196;-2.100;2023-10-09T08:58:08;14.57;;;14.07;;
22068;SDS011;13887;57.196;-2.100;2023-10-09T09:00:51;14.40;;;13.90;;
22068;SDS011;13887;57.196;-2.100;2023-10-09T09:03:21;14.20;;;13.70;;
22068;SDS011;13887;57.196;-2.100;2023-10-09T09:05:59;14.33;;;13.83;;
22068;SDS011;13887;57.196;-2.100;2023-10-09T09:08:29;14.13;;;13.63;;
22068;SDS011;13887;57.196;-2.100;2023-10-09T09:11:01;13.80;;;13.30;;
22068;SDS011;13887;57.196;-2.100;2023-10-09T09:13:39;14.37;;;13.87;;
22068;SDS011;13887;57.196;-2.100;2023-10-09T09:16:20;14.17;;;13.67;;
22068;SDS011;13887;57.196;-2.100;2023-10-09T09:18:49;13.93;;;13.43;;
22068;SDS011;13887;57.196;-2.100;2023-10-09T09:21:57;14.13;;;13.63;;
22068;SDS011;13887;57.196;-2.100;2023-10-09T09:24:38;14.10;;;13.60;;
22068;SDS011;13887;57.196;-2.100;2023-10-09T09:27:12;13.87;;;13.37;;
22068;SDS011;13887;57.196;-2.100;2023-10-09T09:29:40;13.77;;;13.30;;
22068;SDS011;13887;57.196;-2.100;2023-10-09T09:32:09;14.40;;;13.90;;
22068;SDS011;13887;57.196;-2.100;2023-10-09T09:34:48;14.43;;;13.93;;
22068;SDS011;13887;57.196;-2.100;2023-10-09T09:37:19;14.53;;;14.03;;
22068;SDS011;13887;57.196;-2.100;2023-10-09T09:39:47;14.37;;;13.87;;
22068;SDS011;13887;57.196;-2.100;2023-10-09T09:42:22;14.23;;;13.73;;
22068;SDS011;13887;57.196;-2.100;2023-10-09T09:44:54;14.07;;;13.57;;
22068;SDS011;13887;57.196;-2.100;2023-10-09T09:47:22;14.20;;;13.70;;
22068;SDS011;13887;57.196;-2.100;2023-10-09T09:49:57;14.43;;;13.93;;
22068;SDS011;13887;57.196;-2.100;2023-10-09T09:52:30;14.33;;;13.83;;
22068;SDS011;13887;57.196;-2.100;2023-10-09T09:55:09;14.40;;;13.90;;
22068;SDS011;13887;57.196;-2.100;2023-10-09T09:57:49;13.73;;;13.23;;
22068;SDS011;13887;57.196;-2.100;2023-10-09T10:00:19;14.20;;;13.70;;
22068;SDS011;13887;57.196;-2.100;2023-10-09T10:03:08;13.40;;;13.00;;
22068;SDS011;13887;57.196;-2.100;2023-10-09T10:05:41;14.20;;;13.70;;
22068;SDS011;13887;57.196;-2.100;2023-10-09T10:08:16;14.53;;;14.03;;
22068;SDS011;13887;57.196;-2.100;2023-10-09T10:10:47;14.17;;;13.67;;
22068;SDS011;13887;57.196;-2.100;2023-10-09T10:14:17;14.30;;;13.80;;
22068;SDS011;13887;57.196;-2.100;2023-10-09T10:16:22;14.30;;;13.80;;
22068;SDS011;13887;57.196;-2.100;2023-10-09T10:18:56;13.80;;;13.30;;
22068;SDS011;13887;57.196;-2.100;2023-10-09T10:21:34;13.97;;;13.47;;
22068;SDS011;13887;57.196;-2.100;2023-10-09T10:24:55;14.03;;;13.53;;
22068;SDS011;13887;57.196;-2.100;2023-10-09T10:27:19;13.40;;;12.97;;
22068;SDS011;13887;57.196;-2.100;2023-10-09T10:35:21;13.90;;;13.40;;
22068;SDS011;13887;57.196;-2.100;2023-10-09T10:38:31;14.23;;;13.73;;
22068;SDS011;13887;57.196;-2.100;2023-10-09T10:41:08;13.70;;;13.20;;
22068;SDS011;13887;57.196;-2.100;2023-10-09T10:43:40;14.37;;;13.87;;
22068;SDS011;13887;57.196;-2.100;2023-10-09T10:46:21;14.00;;;13.50;;
22068;SDS011;13887;57.196;-2.100;2023-10-09T10:49:06;14.40;;;13.90;;
22068;SDS011;13887;57.196;-2.100;2023-10-09T10:51:43;14.67;;;14.17;;
22068;SDS011;13887;57.196;-2.100;2023-10-09T10:54:24;14.03;;;13.53;;
22068;SDS011;13887;57.196;-2.100;2023-10-09T10:57:00;14.17;;;13.67;;
22068;SDS011;13887;57.196;-2.100;2023-10-09T10:59:31;14.20;;;13.70;;
22068;SDS011;13887;57.196;-2.100;2023-10-09T11:02:09;13.43;;;13.03;;
22068;SDS011;13887;57.196;-2.100;2023-10-09T11:04:37;14.37;;;13.87;;
22068;SDS011;13887;57.196;-2.100;2023-10-09T11:07:06;14.13;;;13.63;;
22068;SDS011;13887;57.196;-2.100;2023-10-09T11:09:48;14.23;;;13.73;;
22068;SDS011;13887;57.196;-2.100;2023-10-09T11:15:12;14.03;;;13.53;;
22068;SDS011;13887;57.196;-2.100;2023-10-09T11:20:26;14.07;;;13.57;;
22068;SDS011;13887;57.196;-2.100;2023-10-09T11:22:58;14.03;;;13.53;;
22068;SDS011;13887;57.196;-2.100;2023-10-09T11:25:50;13.80;;;13.30;;
22068;SDS011;13887;57.196;-2.100;2023-10-09T11:28:18;13.03;;;12.63;;
22068;SDS011;13887;57.196;-2.100;2023-10-09T11:31:08;13.57;;;13.13;;
22068;SDS011;13887;57.196;-2.100;2023-10-09T11:33:49;13.63;;;13.17;;
22068;SDS011;13887;57.196;-2.100;2023-10-09T11:36:21;13.70;;;13.20;;
22068;SDS011;13887;57.196;-2.100;2023-10-09T11:39:12;13.63;;;13.13;;
22068;SDS011;13887;57.196;-2.100;2023-10-09T11:42:01;13.50;;;13.10;;
22068;SDS011;13887;57.196;-2.100;2023-10-09T11:44:41;13.67;;;13.17;;
22068;SDS011;13887;57.196;-2.100;2023-10-09T11:47:12;13.57;;;13.07;;
22068;SDS011;13887;57.196;-2.100;2023-10-09T11:49:49;13.27;;;12.87;;
22068;SDS011;13887;57.196;-2.100;2023-10-09T11:52:54;14.03;;;13.53;;
22068;SDS011;13887;57.196;-2.100;2023-10-09T11:55:36;14.30;;;13.80;;
22068;SDS011;13887;57.196;-2.100;2023-10-09T11:58:04;13.57;;;13.10;;
22068;SDS011;13887;57.196;-2.100;2023-10-09T12:00:33;14.27;;;13.77;;
22068;SDS011;13887;57.196;-2.100;2023-10-09T12:03:12;13.90;;;13.40;;
22068;SDS011;13887;57.196;-2.100;2023-10-09T12:05:41;13.57;;;13.07;;
22068;SDS011;13887;57.196;-2.100;2023-10-09T12:08:11;13.63;;;13.13;;
22068;SDS011;13887;57.196;-2.100;2023-10-09T12:10:42;13.87;;;13.37;;
22068;SDS011;13887;57.196;-2.100;2023-10-09T12:13:09;13.90;;;13.40;;
22068;SDS011;13887;57.196;-2.100;2023-10-09T12:15:37;14.40;;;13.90;;
22068;SDS011;13887;57.196;-2.100;2023-10-09T12:18:05;13.70;;;13.20;;
22068;SDS011;13887;57.196;-2.100;2023-10-09T12:20:42;13.57;;;13.10;;
22068;SDS011;13887;57.196;-2.100;2023-10-09T12:23:14;14.37;;;13.87;;
22068;SDS011;13887;57.196;-2.100;2023-10-09T12:25:41;14.33;;;13.83;;
22068;SDS011;13887;57.196;-2.100;2023-10-09T12:28:11;14.07;;;13.57;;
22068;SDS011;13887;57.196;-2.100;2023-10-09T12:30:39;13.77;;;13.27;;
22068;SDS011;13887;57.196;-2.100;2023-10-09T12:33:07;13.80;;;13.30;;
22068;SDS011;13887;57.196;-2.100;2023-10-09T12:35:36;14.13;;;13.63;;
22068;SDS011;13887;57.196;-2.100;2023-10-09T12:38:04;13.90;;;13.40;;
22068;SDS011;13887;57.196;-2.100;2023-10-09T12:40:36;14.27;;;13.77;;
22068;SDS011;13887;57.196;-2.100;2023-10-09T12:43:04;14.03;;;13.53;;
22068;SDS011;13887;57.196;-2.100;2023-10-09T12:45:33;14.30;;;13.80;;
22068;SDS011;13887;57.196;-2.100;2023-10-09T12:48:01;13.90;;;13.40;;
22068;SDS011;13887;57.196;-2.100;2023-10-09T12:50:36;13.60;;;13.17;;
22068;SDS011;13887;57.196;-2.100;2023-10-09T12:53:11;14.33;;;13.83;;
22068;SDS011;13887;57.196;-2.100;2023-10-09T12:55:44;14.07;;;13.57;;
22068;SDS011;13887;57.196;-2.100;2023-10-09T12:58:12;14.10;;;13.60;;
22068;SDS011;13887;57.196;-2.100;2023-10-09T13:00:42;13.93;;;13.43;;
22068;SDS011;13887;57.196;-2.100;2023-10-09T13:03:16;13.77;;;13.27;;
22068;SDS011;13887;57.196;-2.100;2023-10-09T13:05:49;14.27;;;13.77;;
22068;SDS011;13887;57.196;-2.100;2023-10-09T13:08:24;14.33;;;13.83;;
22068;SDS011;13887;57.196;-2.100;2023-10-09T13:11:10;14.23;;;13.73;;
22068;SDS011;13887;57.196;-2.100;2023-10-09T13:13:39;14.37;;;13.87;;
22068;SDS011;13887;57.196;-2.100;2023-10-09T13:18:54;15.10;;;14.60;;
22068;SDS011;13887;57.196;-2.100;2023-10-09T13:21:24;14.60;;;14.10;;
22068;SDS011;13887;57.196;-2.100;2023-10-09T13:23:59;14.73;;;14.23;;
22068;SDS011;13887;57.196;-2.100;2023-10-09T13:26:28;14.77;;;14.27;;
22068;SDS011;13887;57.196;-2.100;2023-10-09T13:29:02;14.83;;;14.33;;
22068;SDS011;13887;57.196;-2.100;2023-10-09T13:31:31;14.60;;;14.10;;
22068;SDS011;13887;57.196;-2.100;2023-10-09T13:34:02;14.80;;;14.30;;
22068;SDS011;13887;57.196;-2.100;2023-10-09T13:36:30;14.47;;;13.97;;
22068;SDS011;13887;57.196;-2.100;2023-10-09T13:39:01;14.77;;;14.27;;
22068;SDS011;13887;57.196;-2.100;2023-10-09T13:41:52;14.70;;;14.20;;
22068;SDS011;13887;57.196;-2.100;2023-10-09T13:44:26;14.80;;;14.30;;
22068;SDS011;13887;57.196;-2.100;2023-10-09T13:46:57;14.40;;;13.90;;
22068;SDS011;13887;57.196;-2.100;2023-10-09T13:49:26;14.40;;;13.90;;
22068;SDS011;13887;57.196;-2.100;2023-10-09T13:52:00;14.80;;;14.30;;
22068;SDS011;13887;57.196;-2.100;2023-10-09T13:54:29;14.77;;;14.27;;
22068;SDS011;13887;57.196;-2.100;2023-10-09T13:57:00;15.03;;;14.53;;
22068;SDS011;13887;57.196;-2.100;2023-10-09T13:59:31;14.17;;;13.67;;
22068;SDS011;13887;57.196;-2.100;2023-10-09T14:02:02;14.37;;;13.87;;
22068;SDS011;13887;57.196;-2.100;2023-10-09T14:04:37;14.37;;;13.87;;
22068;SDS011;13887;57.196;-2.100;2023-10-09T14:07:04;14.00;;;13.50;;
22068;SDS011;13887;57.196;-2.100;2023-10-09T14:09:35;14.70;;;14.20;;
22068;SDS011;13887;57.196;-2.100;2023-10-09T14:12:06;14.60;;;14.10;;
22068;SDS011;13887;57.196;-2.100;2023-10-09T14:14:37;14.90;;;14.40;;
22068;SDS011;13887;57.196;-2.100;2023-10-09T14:17:08;14.53;;;14.03;;
22068;SDS011;13887;57.196;-2.100;2023-10-09T14:19:42;14.73;;;14.23;;
22068;SDS011;13887;57.196;-2.100;2023-10-09T14:22:18;14.60;;;14.10;;
22068;SDS011;13887;57.196;-2.100;2023-10-09T14:24:47;14.93;;;14.43;;
22068;SDS011;13887;57.196;-2.100;2023-10-09T14:27:23;15.00;;;14.50;;
22068;SDS011;13887;57.196;-2.100;2023-10-09T14:29:56;14.93;;;14.43;;
22068;SDS011;13887;57.196;-2.100;2023-10-09T14:32:26;14.97;;;14.47;;
22068;SDS011;13887;57.196;-2.100;2023-10-09T14:35:01;14.67;;;14.17;;
22068;SDS011;13887;57.196;-2.100;2023-10-09T14:37:30;14.53;;;14.03;;
22068;SDS011;13887;57.196;-2.100;2023-10-09T14:39:57;14.77;;;14.27;;
22068;SDS011;13887;57.196;-2.100;2023-10-09T14:42:25;14.83;;;14.33;;
22068;SDS011;13887;57.196;-2.100;2023-10-09T14:44:54;14.83;;;14.33;;
22068;SDS011;13887;57.196;-2.100;2023-10-09T14:47:25;14.70;;;14.20;;
22068;SDS011;13887;57.196;-2.100;2023-10-09T14:49:52;14.87;;;14.37;;
22068;SDS011;13887;57.196;-2.100;2023-10-09T14:52:23;14.87;;;14.37;;
22068;SDS011;13887;57.196;-2.100;2023-10-09T14:54:50;14.50;;;14.00;;
22068;SDS011;13887;57.196;-2.100;2023-10-09T14:57:18;15.00;;;14.50;;
22068;SDS011;13887;57.196;-2.100;2023-10-09T14:59:45;14.87;;;14.37;;
22068;SDS011;13887;57.196;-2.100;2023-10-09T15:02:13;14.77;;;14.27;;
22068;SDS011;13887;57.196;-2.100;2023-10-09T15:04:41;15.10;;;14.60;;
22068;SDS011;13887;57.196;-2.100;2023-10-09T15:07:08;14.60;;;14.10;;
22068;SDS011;13887;57.196;-2.100;2023-10-09T15:09:35;14.80;;;14.30;;
22068;SDS011;13887;57.196;-2.100;2023-10-09T15:12:03;15.07;;;14.57;;
22068;SDS011;13887;57.196;-2.100;2023-10-09T15:14:34;15.20;;;14.70;;
22068;SDS011;13887;57.196;-2.100;2023-10-09T15:17:01;14.63;;;14.13;;
22068;SDS011;13887;57.196;-2.100;2023-10-09T15:19:30;15.07;;;14.57;;
22068;SDS011;13887;57.196;-2.100;2023-10-09T15:21:57;14.80;;;14.30;;
22068;SDS011;13887;57.196;-2.100;2023-10-09T15:24:26;14.87;;;14.37;;
22068;SDS011;13887;57.196;-2.100;2023-10-09T15:26:57;14.30;;;13.80;;